Time;durP1;ratioP1;P1;durP2;ratioP2;P2;SDS_P1;SDS_P2;PMS_P1;PMS_P2;Temp;Humidity;BMP_temperature;BMP_pressure;BME280_temperature;BME280_humidity;BME280_pressure;Samples;Min_cycle;Max_cycle;Signal;HPM_P1;HPM_P2
2022/02/25 00:00:36;;;;;;;3.70;0.50;;;1.60;99.90;;;;;;5033717;28;20045;-82
2022/02/25 00:03:03;;;;;;;3.78;0.60;;;1.60;99.90;;;;;;5041851;28;20049;-82
2022/02/25 00:05:29;;;;;;;9.05;0.77;;;1.60;99.90;;;;;;5033902;28;20033;-81
2022/02/25 00:07:55;;;;;;;4.63;0.82;;;1.50;99.90;;;;;;5034262;28;20028;-80
2022/02/25 00:10:20;;;;;;;9.68;0.80;;;1.60;99.90;;;;;;5028583;28;20014;-82
2022/02/25 00:12:47;;;;;;;7.53;0.93;;;1.60;99.90;;;;;;5033979;28;20034;-82
2022/02/25 00:15:13;;;;;;;7.50;0.73;;;1.60;99.90;;;;;;5039172;28;20083;-80
2022/02/25 00:17:38;;;;;;;5.93;0.60;;;1.60;99.90;;;;;;5033945;28;20033;-82
2022/02/25 00:20:05;;;;;;;6.15;0.73;;;1.60;99.90;;;;;;5033293;28;20025;-82
2022/02/25 00:22:30;;;;;;;7.28;0.60;;;1.50;99.90;;;;;;5044330;28;20543;-82
2022/02/25 00:24:56;;;;;;;9.75;0.80;;;1.60;99.90;;;;;;5040676;28;20072;-81
2022/02/25 00:27:21;;;;;;;10.02;0.80;;;1.50;99.90;;;;;;5033144;28;20469;-82
2022/02/25 00:29:47;;;;;;;11.98;0.65;;;1.50;99.90;;;;;;5033998;28;20040;-82
2022/02/25 00:32:12;;;;;;;6.18;1.73;;;1.50;99.90;;;;;;5042884;28;20457;-82
2022/02/25 00:34:38;;;;;;;12.65;1.75;;;1.50;99.90;;;;;;5052423;28;20035;-81
2022/02/25 00:37:03;;;;;;;9.50;1.05;;;1.50;99.90;;;;;;5049339;28;20021;-82
2022/02/25 00:39:29;;;;;;;5.13;0.82;;;1.50;99.90;;;;;;5053829;28;20570;-81
2022/02/25 00:41:55;;;;;;;8.50;0.77;;;1.50;99.90;;;;;;5045967;28;20116;-82
2022/02/25 00:44:20;;;;;;;9.52;0.75;;;1.50;99.90;;;;;;5025877;28;20433;-80
2022/02/25 00:46:46;;;;;;;7.18;1.25;;;1.40;99.90;;;;;;5044415;28;20029;-81
2022/02/25 00:49:11;;;;;;;11.02;1.13;;;1.50;99.90;;;;;;5028175;28;20107;-82
2022/02/25 00:51:37;;;;;;;10.25;1.42;;;1.50;99.90;;;;;;5026428;28;20132;-82
2022/02/25 00:54:02;;;;;;;11.82;1.65;;;1.50;99.90;;;;;;5032169;28;20400;-81
2022/02/25 00:56:28;;;;;;;10.23;2.30;;;1.50;99.90;;;;;;5035251;28;20096;-81
2022/02/25 00:58:53;;;;;;;10.40;1.77;;;1.50;99.90;;;;;;5034198;28;20487;-82
2022/02/25 01:01:19;;;;;;;11.52;2.92;;;1.50;99.90;;;;;;5030071;28;20112;-82
2022/02/25 01:03:45;;;;;;;8.55;1.70;;;1.50;99.90;;;;;;5033130;28;20033;-82
2022/02/25 01:06:11;;;;;;;10.32;2.20;;;1.50;99.90;;;;;;5033136;28;20531;-82
2022/02/25 01:08:36;;;;;;;7.03;2.20;;;1.50;99.90;;;;;;5033166;28;20041;-82
2022/02/25 01:11:02;;;;;;;8.65;2.47;;;1.50;99.90;;;;;;5047958;28;20075;-82
2022/02/25 01:13:27;;;;;;;15.52;3.08;;;1.50;99.90;;;;;;5033158;28;20080;-82
2022/02/25 01:15:53;;;;;;;13.18;3.17;;;1.50;99.90;;;;;;5043608;28;20079;-82
2022/02/25 01:18:18;;;;;;;6.32;2.60;;;1.50;99.90;;;;;;5038290;28;20029;-82
2022/02/25 01:20:44;;;;;;;12.88;3.45;;;1.50;99.90;;;;;;5042122;28;20040;-82
2022/02/25 01:23:10;;;;;;;9.85;2.75;;;1.50;99.90;;;;;;5035854;28;20417;-82
2022/02/25 01:25:35;;;;;;;7.57;2.80;;;1.50;99.90;;;;;;5049912;28;20086;-82
2022/02/25 01:28:01;;;;;;;11.43;3.40;;;1.50;99.90;;;;;;5032755;28;20492;-82
2022/02/25 01:30:26;;;;;;;10.82;3.45;;;1.50;99.90;;;;;;5052340;28;20457;-83
2022/02/25 01:32:52;;;;;;;15.18;3.47;;;1.60;99.90;;;;;;5033601;28;20029;-82
2022/02/25 01:35:18;;;;;;;11.05;3.08;;;1.60;99.90;;;;;;5029090;28;20030;-82
2022/02/25 01:37:44;;;;;;;20.48;3.42;;;1.50;99.90;;;;;;5040422;28;20366;-82
2022/02/25 01:40:10;;;;;;;14.90;2.75;;;1.60;99.90;;;;;;5016849;28;20022;-82
2022/02/25 01:42:50;;;;;;;11.63;2.97;;;1.60;99.90;;;;;;5029997;28;20033;-82
2022/02/25 01:45:18;;;;;;;6.93;2.20;;;1.60;99.90;;;;;;5030621;28;20056;-82
2022/02/25 01:47:43;;;;;;;12.25;2.92;;;1.60;99.90;;;;;;5032534;28;20485;-81
2022/02/25 01:50:10;;;;;;;7.93;2.97;;;1.60;99.90;;;;;;5032434;28;20084;-82
2022/02/25 01:52:37;;;;;;;9.77;2.50;;;1.60;99.90;;;;;;5043007;28;20073;-82
2022/02/25 01:55:03;;;;;;;9.25;3.20;;;1.60;99.90;;;;;;5037266;28;20036;-82
2022/02/25 01:57:29;;;;;;;12.02;3.45;;;1.60;99.90;;;;;;5020852;28;20033;-82
2022/02/25 01:59:54;;;;;;;10.75;3.20;;;1.70;99.90;;;;;;5030111;28;20029;-82
2022/02/25 02:02:20;;;;;;;16.80;3.15;;;1.70;99.90;;;;;;5034761;28;20086;-81
2022/02/25 02:04:46;;;;;;;11.77;3.10;;;1.70;99.90;;;;;;5031545;28;20108;-81
2022/02/25 02:07:11;;;;;;;10.27;2.92;;;1.70;99.90;;;;;;5019332;28;20053;-82
2022/02/25 02:09:37;;;;;;;10.52;2.90;;;1.70;99.90;;;;;;5042496;28;20021;-83
2022/02/25 02:12:03;;;;;;;8.68;2.58;;;1.70;99.90;;;;;;5033724;28;20025;-82
2022/02/25 02:14:28;;;;;;;11.68;2.60;;;1.70;99.90;;;;;;5031781;28;20539;-81
2022/02/25 02:16:56;;;;;;;11.70;2.65;;;1.80;99.90;;;;;;5013910;28;20116;-83
2022/02/25 02:19:22;;;;;;;12.05;2.95;;;1.80;99.90;;;;;;5018842;28;20473;-82
2022/02/25 02:21:51;;;;;;;10.65;2.33;;;1.80;99.90;;;;;;5031597;28;20053;-82
2022/02/25 02:24:19;;;;;;;10.48;2.70;;;1.80;99.90;;;;;;5047674;28;20035;-81
2022/02/25 02:26:46;;;;;;;10.50;2.55;;;1.80;99.90;;;;;;5031735;28;20463;-82
2022/02/25 02:29:12;;;;;;;13.07;2.80;;;1.80;99.90;;;;;;5032085;28;20457;-83
2022/02/25 02:31:39;;;;;;;15.80;2.97;;;1.80;99.90;;;;;;5042866;28;20561;-82
2022/02/25 02:34:06;;;;;;;14.73;2.20;;;1.80;99.90;;;;;;5036942;28;20026;-82
2022/02/25 02:36:32;;;;;;;10.07;2.65;;;1.80;99.90;;;;;;5039349;28;20028;-83
2022/02/25 02:38:57;;;;;;;9.70;2.00;;;1.80;99.90;;;;;;5049859;28;20035;-82
2022/02/25 02:41:23;;;;;;;8.32;3.13;;;1.80;99.90;;;;;;5028326;28;20068;-84
2022/02/25 02:43:49;;;;;;;11.98;2.60;;;1.80;99.90;;;;;;5032221;28;20021;-82
2022/02/25 02:46:15;;;;;;;12.65;2.85;;;1.70;99.90;;;;;;5031324;28;20454;-82
2022/02/25 02:48:42;;;;;;;9.55;2.03;;;1.70;99.90;;;;;;5028064;28;20108;-82
2022/02/25 02:51:08;;;;;;;10.52;2.60;;;1.70;99.90;;;;;;5040650;28;20396;-82
2022/02/25 02:53:34;;;;;;;10.10;2.28;;;1.70;99.90;;;;;;5041761;28;20029;-82
2022/02/25 02:56:01;;;;;;;10.85;2.13;;;1.70;99.90;;;;;;5036375;28;20029;-82
2022/02/25 02:58:27;;;;;;;10.05;2.08;;;1.70;99.90;;;;;;5038275;28;20029;-84
2022/02/25 03:00:53;;;;;;;7.88;1.45;;;1.70;99.90;;;;;;5037458;28;20095;-83
2022/02/25 03:03:20;;;;;;;8.93;2.15;;;1.70;99.90;;;;;;5038469;28;20461;-83
2022/02/25 03:05:46;;;;;;;12.45;1.98;;;1.70;99.90;;;;;;5038266;28;20037;-83
2022/02/25 03:08:12;;;;;;;11.00;1.77;;;1.70;99.90;;;;;;5051487;28;20075;-83
2022/02/25 03:10:39;;;;;;;10.55;1.95;;;1.70;99.90;;;;;;5038538;28;20444;-84
2022/02/25 03:13:06;;;;;;;8.98;1.77;;;1.80;99.90;;;;;;5037891;28;20033;-82
2022/02/25 03:15:32;;;;;;;7.53;1.58;;;1.70;99.90;;;;;;5047997;28;20032;-83
2022/02/25 03:17:58;;;;;;;8.50;1.65;;;1.70;99.90;;;;;;5043210;28;20024;-82
2022/02/25 03:20:23;;;;;;;8.20;1.67;;;1.70;99.90;;;;;;5037520;28;20032;-82
2022/02/25 03:22:50;;;;;;;14.05;1.77;;;1.80;99.90;;;;;;5038164;28;20520;-83
2022/02/25 03:25:16;;;;;;;7.10;1.17;;;1.70;99.90;;;;;;5037763;28;20033;-82
2022/02/25 03:27:42;;;;;;;6.72;1.73;;;1.70;99.90;;;;;;5037604;28;20040;-82
2022/02/25 03:30:08;;;;;;;8.40;2.25;;;1.70;99.90;;;;;;5049669;28;20021;-84
2022/02/25 03:32:34;;;;;;;10.68;1.42;;;1.70;99.90;;;;;;5018665;28;20111;-83
2022/02/25 03:35:00;;;;;;;11.68;1.50;;;1.70;99.90;;;;;;5018849;28;20432;-82
2022/02/25 03:37:28;;;;;;;9.30;1.88;;;1.80;99.90;;;;;;5050958;28;20032;-83
2022/02/25 03:39:54;;;;;;;9.48;1.42;;;1.80;99.90;;;;;;5046002;28;20596;-83
2022/02/25 03:42:20;;;;;;;5.95;1.20;;;1.70;99.90;;;;;;5037768;28;20120;-83
2022/02/25 03:44:46;;;;;;;10.48;1.30;;;1.70;99.90;;;;;;5037994;28;20028;-83
2022/02/25 03:47:12;;;;;;;5.63;1.40;;;1.80;99.90;;;;;;5031842;28;20038;-82
2022/02/25 03:49:37;;;;;;;7.78;1.45;;;1.70;99.90;;;;;;5038327;28;20382;-83
2022/02/25 03:52:03;;;;;;;10.43;2.33;;;1.80;99.90;;;;;;5046317;28;20053;-84
2022/02/25 03:54:29;;;;;;;7.53;1.35;;;1.80;99.90;;;;;;5022269;28;20021;-84
2022/02/25 03:56:54;;;;;;;10.68;0.95;;;1.80;99.90;;;;;;5045315;28;20028;-83
2022/02/25 03:59:20;;;;;;;10.48;1.33;;;1.80;99.90;;;;;;5036938;28;20032;-82
2022/02/25 04:01:51;;;;;;;9.38;1.17;;;1.80;99.90;;;;;;5034939;28;20489;-83
2022/02/25 04:04:18;;;;;;;9.60;1.25;;;1.80;99.90;;;;;;5039480;28;20021;-82
2022/02/25 04:06:44;;;;;;;11.57;1.45;;;1.80;99.90;;;;;;5053999;28;20052;-83
2022/02/25 04:09:11;;;;;;;11.23;1.45;;;1.80;99.90;;;;;;5035241;28;20056;-82
2022/02/25 04:11:37;;;;;;;15.30;1.48;;;1.80;99.90;;;;;;5034206;28;20516;-83
2022/02/25 04:14:02;;;;;;;12.80;1.73;;;1.80;99.90;;;;;;5033647;28;20018;-83
2022/02/25 04:16:28;;;;;;;11.70;1.10;;;1.80;99.90;;;;;;5034321;28;20441;-83
2022/02/25 04:18:54;;;;;;;10.45;1.40;;;1.80;99.90;;;;;;5035930;28;20025;-83
2022/02/25 04:21:19;;;;;;;13.48;1.25;;;1.80;99.90;;;;;;5034245;28;20029;-81
2022/02/25 04:23:45;;;;;;;11.85;1.20;;;1.80;99.90;;;;;;5024679;28;20468;-84
2022/02/25 04:26:10;;;;;;;10.88;1.27;;;1.80;99.90;;;;;;5038888;28;20033;-84
2022/02/25 04:28:36;;;;;;;14.45;1.10;;;1.80;99.90;;;;;;5033246;28;20400;-84
2022/02/25 04:31:04;;;;;;;9.95;0.93;;;1.80;99.90;;;;;;5033863;28;20033;-84
2022/02/25 04:33:30;;;;;;;7.13;0.85;;;1.80;99.90;;;;;;5052707;22;20064;-83
2022/02/25 04:35:55;;;;;;;6.65;0.93;;;1.80;99.90;;;;;;5033962;28;20578;-83
2022/02/25 04:38:22;;;;;;;10.98;1.38;;;1.80;99.90;;;;;;5026232;28;20420;-83
2022/02/25 04:40:48;;;;;;;16.70;1.67;;;1.80;99.90;;;;;;5015178;28;20038;-83
2022/02/25 04:43:13;;;;;;;13.35;1.73;;;1.80;99.90;;;;;;5013088;28;20112;-82
2022/02/25 04:45:39;;;;;;;6.63;1.55;;;1.80;99.90;;;;;;5013167;28;20486;-84
2022/02/25 04:48:04;;;;;;;13.77;1.13;;;1.80;99.90;;;;;;4995381;28;20022;-83
2022/02/25 04:50:30;;;;;;;8.52;1.13;;;1.80;99.90;;;;;;5013716;28;20018;-83
2022/02/25 04:52:56;;;;;;;11.48;1.60;;;1.90;99.90;;;;;;4997093;28;20385;-84
2022/02/25 04:55:21;;;;;;;9.60;1.10;;;1.80;99.90;;;;;;5013358;28;20093;-82
2022/02/25 04:57:47;;;;;;;10.10;1.10;;;1.80;99.90;;;;;;5012910;28;20041;-82
2022/02/25 05:00:14;;;;;;;10.15;1.20;;;1.80;99.90;;;;;;5014026;28;20029;-82
2022/02/25 05:02:44;;;;;;;14.05;1.25;;;1.80;99.90;;;;;;5014240;28;20030;-83
2022/02/25 05:05:10;;;;;;;15.55;1.35;;;1.80;99.90;;;;;;4997499;28;20450;-82
2022/02/25 05:07:36;;;;;;;9.35;0.95;;;1.80;99.90;;;;;;5013745;28;20033;-82
2022/02/25 05:10:03;;;;;;;10.73;1.30;;;1.80;99.90;;;;;;4995349;28;20017;-83
2022/02/25 05:12:28;;;;;;;13.13;1.08;;;1.80;99.90;;;;;;5012427;28;20036;-82
2022/02/25 05:20:25;;;;;;;16.65;1.30;;;1.80;99.90;;;;;;5012117;28;20068;-81
2022/02/25 05:22:56;;;;;;;14.32;0.82;;;1.90;99.90;;;;;;5012410;28;20026;-81
2022/02/25 05:25:23;;;;;;;13.45;1.88;;;1.80;99.90;;;;;;5023227;28;20477;-81
2022/02/25 05:27:50;;;;;;;14.98;1.55;;;1.90;99.90;;;;;;5012757;28;20077;-82
2022/02/25 05:30:16;;;;;;;18.35;1.23;;;1.90;99.90;;;;;;5014266;28;20529;-81
2022/02/25 05:32:42;;;;;;;8.48;0.95;;;1.90;99.90;;;;;;5017850;28;20165;-82
2022/02/25 05:35:09;;;;;;;15.00;1.65;;;2.00;99.90;;;;;;4994384;28;20059;-82
2022/02/25 05:37:36;;;;;;;12.93;2.10;;;2.10;99.90;;;;;;5010741;28;20076;-81
2022/02/25 05:40:04;;;;;;;15.75;1.65;;;2.10;99.90;;;;;;5013188;28;20095;-81
2022/02/25 05:42:29;;;;;;;10.23;1.27;;;2.20;99.90;;;;;;5012941;28;20057;-82
2022/02/25 05:44:55;;;;;;;13.27;1.13;;;2.20;99.90;;;;;;5011806;28;20497;-82
2022/02/25 05:47:20;;;;;;;13.23;1.10;;;2.30;99.90;;;;;;5012402;28;20022;-81
2022/02/25 05:49:46;;;;;;;11.40;1.30;;;2.30;99.90;;;;;;5008915;28;20425;-81
2022/02/25 05:52:11;;;;;;;15.68;1.15;;;2.30;99.90;;;;;;5012057;28;20033;-82
2022/02/25 05:54:37;;;;;;;21.77;1.77;;;2.40;99.90;;;;;;5011818;28;20065;-82
2022/02/25 05:57:03;;;;;;;23.40;2.63;;;2.40;99.90;;;;;;5012510;28;20026;-79
2022/02/25 05:59:28;;;;;;;11.23;1.48;;;2.50;99.90;;;;;;4994560;28;20375;-79
2022/02/25 06:01:54;;;;;;;9.57;1.00;;;2.50;99.90;;;;;;5012504;28;20092;-83
2022/02/25 06:04:20;;;;;;;16.05;1.13;;;2.60;99.90;;;;;;5009534;28;20470;-81
2022/02/25 06:06:45;;;;;;;19.55;1.38;;;2.60;99.90;;;;;;5006714;28;20367;-81
2022/02/25 06:09:11;;;;;;;18.48;1.70;;;2.60;99.90;;;;;;5008926;28;20065;-81
2022/02/25 06:11:36;;;;;;;19.65;1.10;;;2.70;99.90;;;;;;5011679;28;20402;-82
2022/02/25 06:14:02;;;;;;;13.73;1.40;;;2.70;99.90;;;;;;5011321;28;20118;-82
2022/02/25 06:16:27;;;;;;;13.48;1.27;;;2.80;99.90;;;;;;4991886;28;20030;-82
2022/02/25 06:18:53;;;;;;;11.80;1.45;;;2.80;99.90;;;;;;5011310;28;20029;-82
2022/02/25 06:21:20;;;;;;;13.85;1.10;;;2.80;99.90;;;;;;5006250;28;20460;-81
2022/02/25 06:23:45;;;;;;;11.27;1.13;;;2.80;99.90;;;;;;4990027;28;20026;-83
2022/02/25 06:26:11;;;;;;;12.55;1.23;;;2.90;99.90;;;;;;5006054;28;20018;-80
2022/02/25 06:28:36;;;;;;;24.02;1.67;;;2.90;99.90;;;;;;5011892;28;20052;-81
2022/02/25 06:31:02;;;;;;;16.55;1.98;;;2.90;99.90;;;;;;5016940;28;20032;-82
2022/02/25 06:33:27;;;;;;;13.43;1.25;;;3.00;99.90;;;;;;5019776;28;20548;-82
2022/02/25 06:35:53;;;;;;;11.70;1.50;;;3.00;99.90;;;;;;4994598;28;20029;-80
2022/02/25 06:38:19;;;;;;;15.63;1.85;;;3.00;99.90;;;;;;5011713;28;20413;-80
2022/02/25 06:40:44;;;;;;;15.40;1.48;;;3.00;99.90;;;;;;5011431;28;20068;-82
2022/02/25 06:43:10;;;;;;;16.00;1.38;;;2.90;99.90;;;;;;5010708;28;20021;-82
2022/02/25 06:45:35;;;;;;;11.02;1.63;;;3.00;99.90;;;;;;5011368;28;20037;-83
2022/02/25 06:48:01;;;;;;;17.58;2.45;;;3.00;99.90;;;;;;5010722;28;20366;-82
2022/02/25 06:50:26;;;;;;;15.55;1.60;;;3.00;99.90;;;;;;5007017;28;20109;-81
2022/02/25 06:52:52;;;;;;;16.38;1.75;;;3.00;99.90;;;;;;5011207;28;20038;-82
2022/02/25 06:55:17;;;;;;;17.67;1.83;;;3.00;99.90;;;;;;5011620;28;20034;-83
2022/02/25 06:57:44;;;;;;;23.17;2.53;;;3.00;99.90;;;;;;5003963;28;20034;-83
2022/02/25 07:00:13;;;;;;;22.38;3.28;;;3.00;99.90;;;;;;5011964;28;20030;-82
2022/02/25 07:02:39;;;;;;;15.20;1.60;;;3.00;99.90;;;;;;5010848;28;20034;-82
2022/02/25 07:05:05;;;;;;;15.68;1.70;;;3.10;99.90;;;;;;5011735;28;20032;-82
2022/02/25 07:07:30;;;;;;;21.33;2.15;;;3.10;99.90;;;;;;5011909;28;20088;-83
2022/02/25 07:09:56;;;;;;;17.35;1.60;;;3.10;99.90;;;;;;5011334;28;20464;-82
2022/02/25 07:12:22;;;;;;;18.88;2.03;;;3.20;99.90;;;;;;5007682;28;20487;-83
2022/02/25 07:14:48;;;;;;;15.70;1.77;;;3.20;99.90;;;;;;5009941;28;20030;-80
2022/02/25 07:17:14;;;;;;;13.93;1.98;;;3.30;99.90;;;;;;5007296;28;20030;-82
2022/02/25 07:19:40;;;;;;;11.90;1.30;;;3.40;99.90;;;;;;5006974;28;20026;-80
2022/02/25 07:22:05;;;;;;;19.00;1.58;;;3.40;99.90;;;;;;5009396;28;20097;-81
2022/02/25 07:24:31;;;;;;;11.75;1.17;;;3.50;99.90;;;;;;4993120;28;20026;-82
2022/02/25 07:26:57;;;;;;;18.25;2.05;;;3.60;99.90;;;;;;5010072;28;20026;-80
2022/02/25 07:29:22;;;;;;;16.77;1.60;;;3.60;99.90;;;;;;5009012;28;20025;-78
2022/02/25 07:31:48;;;;;;;18.58;1.63;;;3.60;99.90;;;;;;5007321;28;20025;-79
2022/02/25 07:34:13;;;;;;;15.93;2.45;;;3.60;99.90;;;;;;5008979;28;20046;-80
2022/02/25 07:36:39;;;;;;;11.43;1.75;;;3.60;99.90;;;;;;5012576;28;20490;-79
2022/02/25 07:39:05;;;;;;;17.80;3.53;;;3.50;99.90;;;;;;5015581;28;20494;-79
2022/02/25 07:41:30;;;;;;;14.65;1.52;;;3.60;99.90;;;;;;5012933;28;20061;-79
2022/02/25 07:43:56;;;;;;;17.98;1.35;;;3.60;99.90;;;;;;5010675;28;20033;-81
2022/02/25 07:46:22;;;;;;;19.20;2.08;;;3.60;99.90;;;;;;5012501;28;20076;-79
2022/02/25 07:48:47;;;;;;;27.85;2.95;;;3.70;99.90;;;;;;5014204;28;20018;-78
2022/02/25 07:51:13;;;;;;;18.90;1.42;;;3.80;99.90;;;;;;5012543;28;20076;-79
2022/02/25 07:53:39;;;;;;;14.63;2.00;;;3.80;99.90;;;;;;5014474;28;20096;-80
2022/02/25 07:56:05;;;;;;;17.55;1.55;;;3.90;99.90;;;;;;5014627;28;20417;-80
2022/02/25 07:58:34;;;;;;;16.48;2.08;;;4.10;99.90;;;;;;5011058;28;20090;-80
2022/02/25 08:00:59;;;;;;;15.15;1.75;;;4.10;99.90;;;;;;5015765;28;20038;-80
2022/02/25 08:03:25;;;;;;;20.90;2.78;;;4.20;99.90;;;;;;5007217;28;20042;-79
2022/02/25 08:05:51;;;;;;;18.30;1.58;;;4.30;99.90;;;;;;5012649;28;20381;-80
2022/02/25 08:08:16;;;;;;;14.35;1.33;;;4.30;99.90;;;;;;5012764;28;20413;-80
2022/02/25 08:10:42;;;;;;;12.15;1.73;;;4.30;99.90;;;;;;5014632;28;20034;-79
2022/02/25 08:13:08;;;;;;;14.70;1.60;;;4.30;99.90;;;;;;4996515;28;20112;-79
2022/02/25 08:15:35;;;;;;;13.60;1.48;;;4.30;99.90;;;;;;5011884;28;20081;-82
2022/02/25 08:18:02;;;;;;;17.30;1.63;;;4.40;99.90;;;;;;5014901;28;20013;-82
2022/02/25 08:20:27;;;;;;;15.73;1.48;;;4.60;99.90;;;;;;5012449;28;20489;-81
2022/02/25 08:22:57;;;;;;;19.88;1.58;;;4.70;99.90;;;;;;5014362;28;20030;-82
2022/02/25 08:25:24;;;;;;;18.85;1.50;;;4.90;99.90;;;;;;5009752;28;20041;-81
2022/02/25 08:27:49;;;;;;;16.05;1.15;;;5.10;99.90;;;;;;5015222;28;20068;-82
2022/02/25 08:30:15;;;;;;;15.23;1.63;;;5.30;99.90;;;;;;5020771;28;20057;-80
2022/02/25 08:32:50;;;;;;;16.38;1.33;;;5.50;99.90;;;;;;5001363;28;20030;-80
2022/02/25 08:35:18;;;;;;;13.30;1.13;;;5.70;99.90;;;;;;5012016;28;20045;-81
2022/02/25 08:37:44;;;;;;;11.00;0.98;;;5.80;99.90;;;;;;4990226;28;20114;-80
2022/02/25 08:40:11;;;;;;;12.40;2.05;;;5.90;99.90;;;;;;5012734;28;20036;-81
2022/02/25 08:42:37;;;;;;;14.80;1.38;;;6.00;99.90;;;;;;5013083;28;20080;-80
2022/02/25 08:45:08;;;;;;;14.18;1.15;;;6.10;99.90;;;;;;5013893;28;20034;-80
2022/02/25 08:47:34;;;;;;;13.23;0.98;;;6.20;99.90;;;;;;5011254;28;20049;-78
2022/02/25 08:50:00;;;;;;;10.10;1.10;;;6.10;99.90;;;;;;5022377;28;20049;-80
2022/02/25 08:52:26;;;;;;;9.90;1.08;;;6.10;99.90;;;;;;5033087;28;20032;-80
2022/02/25 08:54:53;;;;;;;17.23;1.83;;;6.10;99.90;;;;;;5014011;28;20381;-80
2022/02/25 08:57:18;;;;;;;14.27;1.27;;;6.20;99.90;;;;;;5009434;28;20030;-79
2022/02/25 08:59:44;;;;;;;10.48;1.48;;;6.30;99.90;;;;;;5013413;28;20503;-80
2022/02/25 09:02:10;;;;;;;13.52;1.58;;;6.40;99.90;;;;;;4996050;28;20046;-81
2022/02/25 09:04:36;;;;;;;18.55;1.73;;;6.60;99.90;;;;;;5004276;28;20473;-80
2022/02/25 09:07:02;;;;;;;13.13;1.17;;;6.70;99.90;;;;;;5011778;28;20049;-81
2022/02/25 09:09:27;;;;;;;9.27;1.40;;;6.80;99.90;;;;;;5011105;28;20022;-80
2022/02/25 09:11:53;;;;;;;16.98;1.30;;;6.90;99.90;;;;;;5013261;28;20401;-80
2022/02/25 09:14:20;;;;;;;10.25;1.35;;;7.00;99.90;;;;;;5006821;28;20022;-80
2022/02/25 09:16:45;;;;;;;16.48;1.40;;;7.10;99.90;;;;;;5003796;28;20030;-81
2022/02/25 09:19:11;;;;;;;16.25;2.00;;;7.00;99.90;;;;;;5013156;28;20112;-80
2022/02/25 09:21:37;;;;;;;18.45;1.55;;;6.90;99.90;;;;;;4995380;28;20030;-81
2022/02/25 09:24:03;;;;;;;13.15;1.75;;;6.90;99.90;;;;;;5013055;28;20032;-81
2022/02/25 09:26:29;;;;;;;13.57;1.00;;;6.90;99.90;;;;;;5012367;28;20038;-80
2022/02/25 09:28:56;;;;;;;15.93;2.33;;;6.90;99.90;;;;;;5017580;28;20116;-80
2022/02/25 09:31:22;;;;;;;13.85;1.60;;;6.90;99.90;;;;;;5015528;28;20105;-79
2022/02/25 09:33:47;;;;;;;18.73;0.98;;;7.00;99.90;;;;;;5012254;28;20200;-81
2022/02/25 09:36:13;;;;;;;9.52;1.02;;;7.00;99.90;;;;;;5012800;28;20030;-80
2022/02/25 09:38:40;;;;;;;18.10;1.42;;;7.10;99.90;;;;;;5011736;28;20057;-81
2022/02/25 09:41:06;;;;;;;13.95;1.50;;;7.20;99.90;;;;;;5012665;28;20048;-80
2022/02/25 09:43:32;;;;;;;17.42;1.90;;;7.20;99.90;;;;;;5011871;28;20018;-80
2022/02/25 09:46:01;;;;;;;20.23;1.92;;;7.10;99.90;;;;;;5012534;28;20121;-80
2022/02/25 09:48:26;;;;;;;17.30;1.30;;;7.10;99.90;;;;;;5004775;28;20023;-80
2022/02/25 09:50:52;;;;;;;9.27;1.08;;;7.00;99.90;;;;;;4996234;28;20432;-80
2022/02/25 09:53:19;;;;;;;10.95;0.90;;;6.90;99.90;;;;;;5009525;28;20038;-80
2022/02/25 09:55:45;;;;;;;13.88;1.55;;;6.90;99.90;;;;;;5010441;28;20037;-79
2022/02/25 09:58:10;;;;;;;12.82;1.38;;;6.90;99.90;;;;;;5008834;28;20380;-79
2022/02/25 10:00:38;;;;;;;16.63;1.50;;;6.90;99.90;;;;;;5011090;28;20088;-80
2022/02/25 10:03:07;;;;;;;13.80;0.88;;;6.80;99.90;;;;;;5010493;28;20481;-80
2022/02/25 10:05:34;;;;;;;9.85;1.52;;;6.80;99.90;;;;;;5011391;28;20030;-80
2022/02/25 10:08:17;;;;;;;16.67;1.38;;;6.80;99.90;;;;;;5005112;28;20504;-80
2022/02/25 10:10:45;;;;;;;;;;;6.80;99.90;;;;;;5010799;28;20590;-79
2022/02/25 10:13:13;;;;;;;14.88;1.25;;;6.80;99.90;;;;;;5008036;28;19909;-81
2022/02/25 10:15:41;;;;;;;19.13;1.92;;;6.80;99.90;;;;;;4991658;28;20030;-81
2022/02/25 10:18:14;;;;;;;12.02;1.13;;;6.80;99.90;;;;;;5008481;28;20018;-80
2022/02/25 10:20:41;;;;;;;14.85;1.83;;;6.80;99.90;;;;;;5008955;28;20515;-81
2022/02/25 10:23:27;;;;;;;12.57;0.80;;;6.80;99.90;;;;;;4991848;28;20462;-81
2022/02/25 10:26:14;;;;;;;12.25;1.05;;;6.90;99.90;;;;;;5007809;28;20052;-79
2022/02/25 10:28:42;;;;;;;14.68;1.38;;;7.00;99.90;;;;;;5006907;28;20124;-79
2022/02/25 10:31:32;;;;;;;13.27;1.23;;;7.20;99.90;;;;;;5008668;28;20429;-78
2022/02/25 10:34:11;;;;;;;13.43;1.15;;;7.50;99.90;;;;;;5008213;28;20390;-79
2022/02/25 10:36:48;;;;;;;12.75;1.58;;;7.70;99.90;;;;;;4991948;28;20022;-77
2022/02/25 10:39:17;;;;;;;9.43;1.27;;;7.90;99.90;;;;;;5010198;28;20027;-77
2022/02/25 10:42:03;;;;;;;19.42;1.05;;;7.90;99.90;;;;;;5008194;28;20057;-78
2022/02/25 10:44:38;;;;;;;12.60;1.27;;;8.00;99.90;;;;;;5009174;28;20165;-78
2022/02/25 10:47:22;;;;;;;8.43;1.35;;;8.00;99.90;;;;;;5007652;28;20381;-77
2022/02/25 10:49:56;;;;;;;10.85;1.38;;;8.10;99.90;;;;;;5003352;28;20041;-78
2022/02/25 10:52:25;;;;;;;9.57;0.60;;;8.30;99.90;;;;;;5007684;28;20444;-79
2022/02/25 10:54:52;;;;;;;11.25;0.93;;;8.30;99.90;;;;;;5008308;28;20152;-79
2022/02/25 10:57:19;;;;;;;12.57;1.33;;;8.30;99.90;;;;;;5011393;28;20540;-79
2022/02/25 10:59:46;;;;;;;8.68;0.90;;;8.20;99.90;;;;;;5009048;28;20378;-78
2022/02/25 11:03:02;;;;;;;14.00;1.30;;;8.20;99.90;;;;;;5003644;28;20045;-78
2022/02/25 11:05:33;;;;;;;16.30;1.17;;;8.10;99.90;;;;;;5008252;28;20109;-78
2022/02/25 11:08:01;;;;;;;10.25;0.68;;;8.00;99.90;;;;;;5010369;28;20141;-79
2022/02/25 11:41:51;;;;;;;22.23;1.50;;;7.40;99.90;;;;;;5014399;28;20628;-89
2022/02/25 11:44:17;;;;;;;16.42;1.40;;;7.30;99.90;;;;;;5036233;28;20025;-88
2022/02/25 11:46:44;;;;;;;14.95;0.82;;;7.30;99.90;;;;;;5037415;28;20048;-88
2022/02/25 11:49:15;;;;;;;8.52;0.80;;;7.40;99.90;;;;;;5021601;28;20022;-88
2022/02/25 11:51:51;;;;;;;14.90;0.95;;;7.50;99.90;;;;;;5020251;28;20396;-88
2022/02/25 11:54:26;;;;;;;19.52;2.13;;;7.50;99.90;;;;;;5032480;28;20108;-88
2022/02/25 11:57:04;;;;;;;15.02;1.95;;;7.60;99.90;;;;;;5044437;28;20029;-89
2022/02/25 11:59:32;;;;;;;9.43;0.70;;;7.30;99.90;;;;;;5021102;28;20026;-89
2022/02/25 12:02:13;;;;;;;8.18;0.80;;;6.80;99.90;;;;;;5021191;28;20039;-90
2022/02/25 12:04:40;;;;;;;7.65;0.60;;;6.40;99.90;;;;;;5020246;28;20036;-91
2022/02/25 12:07:07;;;;;;;9.30;0.80;;;6.20;99.90;;;;;;5037173;28;20481;-91
2022/02/25 12:09:46;;;;;;;8.73;0.73;;;5.80;99.90;;;;;;5040833;28;20025;-92
2022/02/25 12:12:23;;;;;;;9.70;0.82;;;5.50;99.90;;;;;;5021392;28;20033;-92
2022/02/25 12:15:07;;;;;;;9.55;0.77;;;5.20;99.90;;;;;;5020851;28;20026;-91
2022/02/25 12:17:55;;;;;;;7.40;0.82;;;5.10;99.90;;;;;;5036437;28;20029;-91
2022/02/25 12:20:34;;;;;;;18.20;2.17;;;5.00;99.90;;;;;;5035896;28;20026;-90
2022/02/25 12:23:04;;;;;;;11.13;0.70;;;5.00;99.90;;;;;;5036224;28;20526;-90
2022/02/25 12:25:38;;;;;;;13.15;1.45;;;4.90;99.90;;;;;;5030786;28;20489;-91
2022/02/25 12:28:22;;;;;;;13.30;0.80;;;4.90;99.90;;;;;;5033545;28;20045;-90
2022/02/25 12:31:00;;;;;;;10.73;0.95;;;4.90;99.90;;;;;;5018787;28;20057;-91
2022/02/25 12:33:44;;;;;;;11.20;0.88;;;4.90;99.90;;;;;;5019666;28;20049;-87
2022/02/25 12:36:14;;;;;;;12.43;1.25;;;4.80;99.90;;;;;;5038223;28;20033;-91
2022/02/25 12:38:50;;;;;;;11.75;0.90;;;4.60;99.90;;;;;;5016331;28;20760;-92
2022/02/25 12:41:22;;;;;;;10.85;1.35;;;4.50;99.90;;;;;;5012943;28;20037;-91
2022/02/25 12:43:54;;;;;;;18.02;1.13;;;4.50;99.90;;;;;;4992543;28;20038;-90
2022/02/25 12:46:22;;;;;;;15.32;2.05;;;4.50;99.90;;;;;;4995340;28;20073;-90
2022/02/25 12:48:50;;;;;;;21.00;2.00;;;4.60;99.90;;;;;;4992855;28;20081;-89
2022/02/25 12:51:17;;;;;;;15.05;1.63;;;4.70;99.90;;;;;;4995170;28;20027;-91
2022/02/25 12:54:08;;;;;;;19.50;1.60;;;4.80;99.90;;;;;;4994703;28;20034;-91
2022/02/25 12:56:47;;;;;;;16.98;1.40;;;5.00;99.90;;;;;;4989947;28;20046;-91
2022/02/25 12:59:19;;;;;;;17.27;1.65;;;5.20;99.90;;;;;;4994229;28;20057;-94
2022/02/25 13:01:52;;;;;;;13.25;1.67;;;5.50;99.90;;;;;;4996084;28;20035;-91
2022/02/25 13:04:20;;;;;;;22.15;1.85;;;5.70;99.90;;;;;;4995392;28;20023;-92
2022/02/25 13:06:48;;;;;;;13.98;1.55;;;5.90;99.90;;;;;;4995746;28;20030;-92
2022/02/25 13:09:22;;;;;;;15.45;1.42;;;6.10;99.90;;;;;;4996246;28;20080;-92
2022/02/25 13:12:20;;;;;;;16.55;1.45;;;6.40;99.90;;;;;;4992991;28;20050;-92
2022/02/25 13:14:48;;;;;;;12.38;1.00;;;6.60;99.90;;;;;;4978525;28;20045;-92
2022/02/25 13:17:17;;;;;;;17.10;1.10;;;6.70;99.90;;;;;;4995567;28;20106;-92
2022/02/25 13:19:53;;;;;;;18.23;1.48;;;6.90;99.90;;;;;;4991920;28;20018;-91
2022/02/25 13:22:25;;;;;;;11.68;0.65;;;7.00;99.90;;;;;;4987789;28;20117;-92
2022/02/25 13:24:54;;;;;;;13.03;0.90;;;7.00;99.90;;;;;;4999144;28;20042;-92
2022/02/25 13:27:37;;;;;;;13.95;1.45;;;7.10;99.90;;;;;;4995137;28;20037;-92
2022/02/25 13:30:20;;;;;;;15.48;1.10;;;7.10;99.90;;;;;;5007272;28;20026;-91